createdAt,value
2018-12-24T00:02:16.831Z,10.1
2018-12-24T00:07:16.856Z,10.2
2018-12-24T00:12:16.768Z,10.2
2018-12-24T00:17:16.820Z,10.3
2018-12-24T00:22:16.886Z,10.4
2018-12-24T00:27:16.819Z,10.4
2018-12-24T00:32:16.821Z,10.5
2018-12-24T00:37:16.816Z,10.6
2018-12-24T00:42:16.827Z,10.6
2018-12-24T00:47:16.837Z,10.7
2018-12-24T00:52:16.836Z,10.9
2018-12-24T00:57:16.868Z,10.9
2018-12-24T01:02:16.850Z,11
2018-12-24T01:07:16.863Z,11.1
2018-12-24T01:12:24.340Z,11
2018-12-24T01:17:16.862Z,11.1
2018-12-24T01:22:16.886Z,11.1
2018-12-24T01:27:16.874Z,11.1
2018-12-24T01:32:16.890Z,11.1
2018-12-24T01:37:16.949Z,11.1
2018-12-24T01:42:16.965Z,11
2018-12-24T01:47:16.965Z,11
2018-12-24T01:52:16.968Z,11
2018-12-24T01:57:16.972Z,11.1
2018-12-24T02:02:16.978Z,11.1
2018-12-24T02:07:16.971Z,11.1
2018-12-24T02:12:16.976Z,11.1
2018-12-24T02:17:17.012Z,11
2018-12-24T02:22:17.026Z,11
2018-12-24T02:27:17.032Z,11
2018-12-24T02:32:17.043Z,11
2018-12-24T02:37:17.054Z,11
2018-12-24T02:42:17.024Z,11
2018-12-24T02:47:17.039Z,11.1
2018-12-24T02:52:17.036Z,11.1
2018-12-24T02:57:17.061Z,11.3
2018-12-24T03:02:17.050Z,11.3
2018-12-24T03:07:17.049Z,11.3
2018-12-24T03:12:17.041Z,11.3
2018-12-24T03:17:17.065Z,11.3
2018-12-24T03:22:17.067Z,11.3
2018-12-24T03:27:17.029Z,11.3
2018-12-24T03:32:17.022Z,11.2
2018-12-24T03:37:17.081Z,11.2
2018-12-24T03:42:17.074Z,11.3
2018-12-24T03:47:17.127Z,10.9
2018-12-24T03:52:17.127Z,9.4
2018-12-24T03:57:17.146Z,8.8
2018-12-24T04:02:17.129Z,8.7
2018-12-24T04:07:17.141Z,8.6
2018-12-24T04:12:17.134Z,8.4
2018-12-24T04:17:17.163Z,8.2
2018-12-24T04:22:17.159Z,8.1
2018-12-24T04:27:17.146Z,8.1
2018-12-24T04:32:17.156Z,8.1
2018-12-24T04:37:17.158Z,8.1
2018-12-24T04:42:17.149Z,8
2018-12-24T04:47:17.162Z,8
2018-12-24T04:52:17.168Z,7.9
2018-12-24T04:57:17.163Z,7.9
2018-12-24T05:02:17.196Z,7.8
2018-12-24T05:07:17.200Z,7.8
2018-12-24T05:12:17.181Z,7.8
2018-12-24T05:17:17.200Z,7.8
2018-12-24T05:22:17.204Z,7.7
2018-12-24T05:27:17.209Z,7.7
2018-12-24T05:32:17.236Z,7.7
2018-12-24T05:37:17.222Z,7.6
2018-12-24T05:42:17.233Z,7.6
2018-12-24T05:47:17.239Z,7.6
2018-12-24T05:52:17.238Z,7.6
2018-12-24T05:57:17.240Z,7.5
2018-12-24T06:02:17.235Z,7.4
2018-12-24T06:07:17.261Z,7.2
2018-12-24T06:12:17.397Z,6.8
2018-12-24T06:17:17.365Z,6.4
2018-12-24T06:22:17.304Z,6.3
2018-12-24T06:27:17.444Z,6.3
2018-12-24T06:32:17.374Z,6.3
2018-12-24T06:37:17.366Z,6.3
2018-12-24T06:42:18.224Z,6.3
2018-12-24T06:47:17.378Z,6.3
2018-12-24T06:52:17.398Z,6.3
2018-12-24T06:57:17.418Z,6.3
2018-12-24T07:02:17.443Z,6.3
2018-12-24T07:07:17.391Z,6.2
2018-12-24T07:12:17.408Z,6.2
2018-12-24T07:17:17.421Z,6.1
2018-12-24T07:22:17.501Z,6.1
2018-12-24T07:27:17.403Z,5.9
2018-12-24T07:32:17.409Z,5.9
2018-12-24T07:37:17.429Z,5.8
2018-12-24T07:42:17.369Z,5.6
2018-12-24T07:47:17.378Z,5.4
2018-12-24T07:52:18.446Z,5.5
2018-12-24T07:57:18.439Z,5.3
2018-12-24T08:02:18.462Z,5.3
2018-12-24T08:07:18.443Z,5.1
2018-12-24T08:12:18.455Z,5.1
2018-12-24T08:17:18.470Z,5.1
2018-12-24T08:22:18.464Z,5.1
2018-12-24T08:27:18.471Z,5
2018-12-24T08:32:18.402Z,5
2018-12-24T08:37:18.441Z,5
2018-12-24T08:42:18.457Z,5
2018-12-24T08:47:18.650Z,4.9
2018-12-24T08:52:18.460Z,4.8
2018-12-24T08:57:18.478Z,4.9
2018-12-24T09:02:18.957Z,4.9
2018-12-24T09:07:19.041Z,4.9
2018-12-24T09:12:19.028Z,4.8
2018-12-24T09:17:18.727Z,4.8
2018-12-24T09:22:18.946Z,4.9
2018-12-24T09:27:18.509Z,4.9
2018-12-24T09:32:18.485Z,4.9
2018-12-24T09:37:19.079Z,4.8
2018-12-24T09:42:18.545Z,4.9
2018-12-24T09:47:19.626Z,5
2018-12-24T09:52:18.979Z,5
2018-12-24T09:57:18.959Z,4.9
2018-12-24T10:02:18.967Z,5
2018-12-24T10:07:18.967Z,5
2018-12-24T10:12:19.111Z,5.1
2018-12-24T10:17:19.049Z,5
2018-12-24T10:22:18.960Z,5
2018-12-24T10:27:18.961Z,5
2018-12-24T10:32:19.355Z,5
2018-12-24T10:37:18.964Z,4.9
2018-12-24T10:42:19.111Z,4.9
2018-12-24T10:47:19.332Z,5
2018-12-24T10:52:18.966Z,5
2018-12-24T10:57:19.323Z,5
2018-12-24T11:02:19.011Z,5.1
2018-12-24T11:07:19.316Z,5
2018-12-24T11:12:19.010Z,5.1
2018-12-24T11:17:19.602Z,5.1
2018-12-24T11:22:18.984Z,5.1
2018-12-24T11:27:19.476Z,5.1
2018-12-24T11:32:19.019Z,5.3
2018-12-24T11:37:19.406Z,5.4
2018-12-24T11:42:19.676Z,5.4
2018-12-24T11:47:19.165Z,5.4
2018-12-24T11:52:19.089Z,5.5
2018-12-24T11:57:18.975Z,5.5
2018-12-24T12:02:19.056Z,5.5
2018-12-24T12:07:18.985Z,5.5
2018-12-24T12:12:19.038Z,5.5
2018-12-24T12:17:19.050Z,5.5
2018-12-24T12:22:21.458Z,5.6
2018-12-24T12:27:19.069Z,5.6
2018-12-24T12:32:19.030Z,5.7
2018-12-24T12:37:19.090Z,5.7
2018-12-24T12:42:19.059Z,5.7
2018-12-24T12:47:18.987Z,5.8
2018-12-24T12:52:19.662Z,5.9
2018-12-24T12:57:20.238Z,5.8
2018-12-24T13:02:20.404Z,5.8
2018-12-24T13:07:20.138Z,5.8
2018-12-24T13:12:20.112Z,5.8
2018-12-24T13:17:20.464Z,6
2018-12-24T13:22:20.465Z,6
2018-12-24T13:27:20.103Z,6
2018-12-24T13:32:20.112Z,6
2018-12-24T13:37:20.140Z,6
2018-12-24T13:42:20.108Z,6
2018-12-24T13:47:20.143Z,6
2018-12-24T13:52:20.120Z,5.8
2018-12-24T13:57:20.143Z,5.9
2018-12-24T14:02:20.118Z,5.8
2018-12-24T14:07:20.123Z,5.8
2018-12-24T14:12:20.133Z,5.7
2018-12-24T14:17:20.283Z,5.7
2018-12-24T14:22:20.138Z,5.7
2018-12-24T14:27:20.168Z,5.7
2018-12-24T14:32:20.183Z,5.7
2018-12-24T14:37:20.177Z,5.7
2018-12-24T14:42:20.138Z,5.4
2018-12-24T14:47:22.946Z,5.2
2018-12-24T14:52:20.154Z,5.1
2018-12-24T14:57:20.169Z,5
2018-12-24T15:02:20.177Z,5
2018-12-24T15:07:20.167Z,5
2018-12-24T15:12:23.160Z,4.9
2018-12-24T15:17:21.212Z,4.8
2018-12-24T15:22:20.181Z,4.7
2018-12-24T15:27:20.179Z,4.7
2018-12-24T15:32:20.265Z,4.7
2018-12-24T15:37:20.263Z,4.6
2018-12-24T15:42:20.148Z,4.7
2018-12-24T15:47:20.195Z,4.6
2018-12-24T15:52:20.202Z,4.6
2018-12-24T15:57:23.186Z,4.7
2018-12-24T16:02:20.197Z,4.7
2018-12-24T16:07:20.198Z,4.7
2018-12-24T16:12:20.199Z,4.7
2018-12-24T16:17:20.558Z,4.7
2018-12-24T16:22:20.210Z,4.7
2018-12-24T16:27:20.213Z,4.7
2018-12-24T16:32:20.239Z,4.8
2018-12-24T16:37:20.209Z,4.6
2018-12-24T16:42:20.211Z,4.6
2018-12-24T16:47:20.216Z,4.3
2018-12-24T16:52:20.236Z,4.2
2018-12-24T16:57:20.218Z,4.2
2018-12-24T17:02:20.227Z,4.1
2018-12-24T17:07:21.247Z,4
2018-12-24T17:12:20.217Z,4
2018-12-24T17:17:20.258Z,4
2018-12-24T17:22:20.253Z,4
2018-12-24T17:27:20.244Z,4
2018-12-24T17:32:20.238Z,3.9
2018-12-24T17:37:20.227Z,3.9
2018-12-24T17:42:20.240Z,3.9
2018-12-24T17:47:20.256Z,3.8
2018-12-24T17:52:20.262Z,3.8
2018-12-24T17:57:21.280Z,3.9
2018-12-24T18:02:20.256Z,3.9
2018-12-24T18:07:20.246Z,4
2018-12-24T18:12:20.255Z,4
2018-12-24T18:17:24.643Z,4.1
2018-12-24T18:22:20.263Z,4.1
2018-12-24T18:27:20.264Z,4.1
2018-12-24T18:32:20.282Z,4.1
2018-12-24T18:37:20.322Z,4.1
2018-12-24T18:42:20.282Z,4.2
2018-12-24T18:47:21.292Z,4.2
2018-12-24T18:52:20.327Z,4.2
2018-12-24T18:57:20.290Z,4.2
2018-12-24T19:02:20.285Z,4.2
2018-12-24T19:07:20.282Z,4.2
2018-12-24T19:12:20.293Z,4.2
2018-12-24T19:17:20.277Z,4.1
2018-12-24T19:22:20.286Z,4.1
2018-12-24T19:27:20.320Z,4.1
2018-12-24T19:32:20.318Z,4.1
2018-12-24T19:37:20.354Z,4
2018-12-24T19:42:20.322Z,4
2018-12-24T19:47:20.319Z,3.9
2018-12-24T19:52:20.276Z,3.8
2018-12-24T19:57:20.325Z,3.8
2018-12-24T20:02:20.367Z,3.8
2018-12-24T20:07:20.324Z,3.8
2018-12-24T20:12:20.328Z,3.8
2018-12-24T20:17:20.329Z,3.8
2018-12-24T20:22:20.318Z,3.8
2018-12-24T20:27:20.340Z,3.8
2018-12-24T20:32:20.347Z,3.9
2018-12-24T20:37:20.333Z,3.9
2018-12-24T20:42:20.346Z,3.9
2018-12-24T20:47:20.358Z,3.9
2018-12-24T20:52:20.362Z,3.9
2018-12-24T20:57:20.365Z,3.9
2018-12-24T21:02:20.371Z,3.9
2018-12-24T21:07:20.368Z,3.9
2018-12-24T21:12:20.355Z,3.9
2018-12-24T21:17:20.411Z,3.9
2018-12-24T21:22:20.358Z,3.8
2018-12-24T21:27:20.387Z,3.8
2018-12-24T21:32:20.376Z,3.8
2018-12-24T21:37:20.379Z,3.8
2018-12-24T21:42:20.378Z,3.7
2018-12-24T21:47:20.381Z,3.7
2018-12-24T21:52:20.355Z,3.7
2018-12-24T21:57:20.859Z,3.7
2018-12-24T22:02:20.414Z,3.7
2018-12-24T22:07:20.825Z,3.8
2018-12-24T22:12:20.626Z,3.8
2018-12-24T22:17:20.409Z,3.8
2018-12-24T22:22:20.401Z,3.8
2018-12-24T22:27:20.858Z,3.8
2018-12-24T22:32:20.448Z,3.9
2018-12-24T22:37:20.396Z,3.8
2018-12-24T22:42:20.429Z,3.9
2018-12-24T22:47:20.590Z,3.9
2018-12-24T22:52:20.519Z,3.9
2018-12-24T22:57:20.487Z,3.9
2018-12-24T23:02:20.447Z,3.9
2018-12-24T23:07:20.424Z,3.8
2018-12-24T23:12:20.413Z,3.8
2018-12-24T23:17:20.415Z,3.8
2018-12-24T23:22:20.427Z,3.8
2018-12-24T23:27:20.441Z,3.8
2018-12-24T23:32:20.490Z,3.8
2018-12-24T23:37:20.547Z,3.8
2018-12-24T23:42:20.395Z,3.8
2018-12-24T23:47:20.480Z,3.8
2018-12-24T23:52:20.454Z,3.8
2018-12-24T23:57:20.422Z,3.9
